Time;durP1;ratioP1;P1;durP2;ratioP2;P2;SDS_P1;SDS_P2;PMS_P1;PMS_P2;Temp;Humidity;BMP_temperature;BMP_pressure;BME280_temperature;BME280_humidity;BME280_pressure;Samples;Min_cycle;Max_cycle;Signal;HPM_P1;HPM_P2
2020/12/07 00:01:18;;;;;;;97.33;19.30;;;;;;;3.13;100.00;99031.06;5031026;28;20281;-67
2020/12/07 00:03:43;;;;;;;127.13;21.13;;;;;;;3.14;100.00;99037.94;4999766;28;20053;-66
2020/12/07 00:06:10;;;;;;;125.97;19.80;;;;;;;3.14;100.00;99037.06;4999795;28;20427;-69
2020/12/07 00:08:36;;;;;;;121.60;21.50;;;;;;;3.12;100.00;99023.31;4998732;28;20405;-68
2020/12/07 00:11:01;;;;;;;105.13;18.67;;;;;;;3.12;100.00;99012.97;5017673;28;20269;-67
2020/12/07 00:13:27;;;;;;;107.30;18.47;;;;;;;3.12;100.00;99012.97;4999622;28;20396;-68
2020/12/07 00:15:52;;;;;;;105.87;21.07;;;;;;;3.11;100.00;99011.25;4997927;28;20099;-69
2020/12/07 00:18:18;;;;;;;102.30;20.93;;;;;;;3.12;100.00;99029.31;5001198;28;20063;-68
2020/12/07 00:20:43;;;;;;;103.47;19.23;;;;;;;3.15;100.00;99028.47;5027552;28;20164;-67
2020/12/07 00:23:10;;;;;;;103.60;20.57;;;;;;;3.10;100.00;99025.03;5002232;28;20076;-69
2020/12/07 00:25:36;;;;;;;119.97;21.67;;;;;;;3.10;100.00;99030.19;5000619;28;20037;-66
2020/12/07 00:28:01;;;;;;;117.00;22.23;;;;;;;3.10;100.00;99020.72;5001821;28;20291;-67
2020/12/07 00:30:26;;;;;;;128.27;21.87;;;;;;;3.10;100.00;99023.28;5003247;28;20072;-69
2020/12/07 00:32:52;;;;;;;126.70;21.17;;;;;;;3.11;100.00;99016.41;4998488;28;20248;-69
2020/12/07 00:35:17;;;;;;;113.70;19.43;;;;;;;3.10;100.00;99009.53;5003545;28;20029;-68
2020/12/07 00:37:43;;;;;;;120.40;20.63;;;;;;;3.09;100.00;99005.22;5002798;28;20021;-69
2020/12/07 00:40:08;;;;;;;111.57;21.87;;;;;;;3.10;100.00;99010.38;4998645;28;20037;-68
2020/12/07 00:42:34;;;;;;;110.93;20.13;;;;;;;3.11;100.00;99016.41;5000435;28;20500;-69
2020/12/07 00:44:59;;;;;;;88.57;19.00;;;;;;;3.09;100.00;99011.25;4998143;28;20552;-66
2020/12/07 00:47:24;;;;;;;106.10;20.07;;;;;;;3.07;100.00;99025.00;4996842;28;20501;-68
2020/12/07 00:49:50;;;;;;;115.60;20.87;;;;;;;3.09;100.00;99018.13;5003778;28;20075;-65
2020/12/07 00:52:15;;;;;;;113.97;21.37;;;;;;;3.06;100.00;99019.00;4999359;28;20036;-66
2020/12/07 00:54:41;;;;;;;109.57;21.00;;;;;;;3.09;100.00;99005.22;5001160;28;20049;-68
2020/12/07 00:57:06;;;;;;;103.50;21.30;;;;;;;3.08;100.00;99013.81;5015997;28;20025;-68
2020/12/07 00:59:32;;;;;;;104.70;20.33;;;;;;;3.10;100.00;99025.03;5001779;28;20588;-66
2020/12/07 01:01:58;;;;;;;94.20;18.90;;;;;;;3.11;100.00;99027.59;5000858;28;20033;-68
2020/12/07 01:04:24;;;;;;;106.43;19.33;;;;;;;3.11;100.00;99019.84;5002219;28;20425;-68
2020/12/07 01:06:50;;;;;;;88.27;17.63;;;;;;;3.13;100.00;99014.69;4997868;28;20288;-66
2020/12/07 01:09:17;;;;;;;93.33;19.57;;;;;;;3.11;100.00;99009.53;5001568;28;20284;-66
2020/12/07 01:11:43;;;;;;;86.97;21.33;;;;;;;3.07;100.00;98999.19;5001788;28;20030;-68
2020/12/07 01:14:14;;;;;;;90.63;19.60;;;;;;;3.13;100.00;98999.19;5006040;28;20287;-68
2020/12/07 01:16:41;;;;;;;103.15;21.70;;;;;;;3.10;100.00;98991.44;5003794;28;20363;-69
2020/12/07 01:19:07;;;;;;;90.23;17.70;;;;;;;3.10;100.00;98979.41;4999888;28;20032;-69
2020/12/07 01:21:34;;;;;;;96.10;18.83;;;;;;;3.11;100.00;98985.44;5022025;28;20284;-66
2020/12/07 01:24:00;;;;;;;90.10;20.63;;;;;;;3.10;100.00;98978.53;5023912;28;20312;-70
2020/12/07 01:26:26;;;;;;;86.00;19.93;;;;;;;3.10;100.00;98983.72;5005479;28;20284;-70
2020/12/07 01:28:55;;;;;;;75.70;17.40;;;;;;;3.12;100.00;98998.34;5004255;28;20354;-72
2020/12/07 01:31:20;;;;;;;104.43;20.47;;;;;;;3.13;100.00;99001.78;4998672;28;20040;-69
2020/12/07 01:33:46;;;;;;;99.13;20.20;;;;;;;3.13;100.00;99004.38;5002919;28;20269;-68
2020/12/07 01:36:12;;;;;;;105.30;19.70;;;;;;;3.12;100.00;98988.00;5037068;28;20105;-69
2020/12/07 01:38:38;;;;;;;102.83;21.03;;;;;;;3.12;100.00;98992.31;5002535;28;20089;-68
2020/12/07 01:41:03;;;;;;;96.40;20.53;;;;;;;3.11;100.00;98977.69;5000411;28;20284;-68
2020/12/07 01:43:29;;;;;;;99.63;20.27;;;;;;;3.11;100.00;98975.09;5001124;28;20299;-68
2020/12/07 01:45:56;;;;;;;89.27;19.83;;;;;;;3.11;100.00;98975.97;5008578;28;20022;-66
2020/12/07 01:48:22;;;;;;;89.77;19.30;;;;;;;3.11;100.00;98959.59;5004860;28;20044;-69
2020/12/07 01:50:47;;;;;;;115.80;20.67;;;;;;;3.11;100.00;98957.88;5005974;28;20269;-68
2020/12/07 01:53:13;;;;;;;103.67;19.83;;;;;;;3.14;100.00;98959.59;5004240;28;20685;-68
2020/12/07 01:55:40;;;;;;;109.13;20.97;;;;;;;3.13;100.00;98947.56;5006170;28;20044;-68
2020/12/07 01:58:05;;;;;;;113.63;20.73;;;;;;;3.15;100.00;98958.75;5004954;28;20034;-66
2020/12/07 02:00:31;;;;;;;104.47;21.67;;;;;;;3.13;100.00;98963.06;5003506;28;20299;-69
2020/12/07 02:02:57;;;;;;;105.77;21.57;;;;;;;3.14;100.00;98962.19;4998033;28;20342;-68
2020/12/07 02:05:23;;;;;;;111.47;20.67;;;;;;;3.13;100.00;98952.72;5006725;28;20037;-68
2020/12/07 02:07:50;;;;;;;111.77;22.70;;;;;;;3.14;100.00;98942.41;5001297;28;20033;-66
2020/12/07 02:10:16;;;;;;;108.33;23.33;;;;;;;3.12;100.00;98933.78;5004640;28;20281;-69
2020/12/07 02:12:41;;;;;;;119.23;19.67;;;;;;;3.11;100.00;98928.63;5005409;28;20280;-66
2020/12/07 02:15:06;;;;;;;127.20;22.53;;;;;;;3.10;100.00;98916.56;5000058;28;20084;-68
2020/12/07 02:17:32;;;;;;;122.07;21.20;;;;;;;3.14;100.00;98913.13;5020876;28;20029;-68
2020/12/07 02:19:57;;;;;;;116.00;21.27;;;;;;;3.12;100.00;98920.03;4999307;28;20041;-67
2020/12/07 02:22:23;;;;;;;123.10;20.77;;;;;;;3.08;100.00;98908.84;4993043;28;20532;-70
2020/12/07 02:24:48;;;;;;;111.47;21.03;;;;;;;3.11;100.00;98915.72;5004411;28;20034;-68
2020/12/07 02:27:13;;;;;;;126.93;23.00;;;;;;;3.12;100.00;98915.72;5005316;28;20030;-65
2020/12/07 02:29:39;;;;;;;119.90;22.33;;;;;;;3.13;100.00;98922.59;5001517;28;20025;-67
2020/12/07 02:32:12;;;;;;;112.87;20.40;;;;;;;3.16;100.00;98932.97;5001439;28;20435;-69
2020/12/07 02:34:39;;;;;;;126.87;21.83;;;;;;;3.14;100.00;98938.94;5002191;28;20034;-68
2020/12/07 02:37:04;;;;;;;126.40;21.97;;;;;;;3.14;100.00;98928.63;5005484;28;20821;-67
2020/12/07 02:39:29;;;;;;;119.47;21.80;;;;;;;3.14;100.00;98921.75;5003987;28;20284;-68
2020/12/07 02:41:55;;;;;;;118.17;20.73;;;;;;;3.12;100.00;98923.47;5005415;28;20045;-67
2020/12/07 02:44:20;;;;;;;121.57;22.13;;;;;;;3.15;100.00;98931.25;5005013;28;20109;-66
2020/12/07 02:46:46;;;;;;;96.57;21.63;;;;;;;3.14;100.00;98918.28;5004310;28;20400;-68
2020/12/07 02:49:11;;;;;;;103.90;19.73;;;;;;;3.13;100.00;98914.00;5002303;28;20034;-69
2020/12/07 02:51:36;;;;;;;114.00;21.00;;;;;;;3.12;100.00;98909.69;5006871;28;20037;-67
2020/12/07 02:54:02;;;;;;;111.60;19.77;;;;;;;3.14;100.00;98914.00;5000736;28;20664;-66
2020/12/07 02:56:27;;;;;;;120.03;20.17;;;;;;;3.15;100.00;98909.69;5008873;28;20061;-69
2020/12/07 02:58:53;;;;;;;99.10;19.33;;;;;;;3.17;100.00;98905.41;5004332;28;20112;-70
2020/12/07 03:01:18;;;;;;;102.07;20.90;;;;;;;3.16;100.00;98908.84;5003772;28;20042;-68
2020/12/07 03:03:43;;;;;;;107.27;21.43;;;;;;;3.16;100.00;98914.88;5003210;28;20030;-69
2020/12/07 03:06:09;;;;;;;105.77;20.63;;;;;;;3.16;100.00;98906.28;5007235;28;20053;-67
2020/12/07 03:08:34;;;;;;;97.73;19.23;;;;;;;3.14;100.00;98913.13;5004105;28;20041;-67
2020/12/07 03:10:59;;;;;;;100.97;21.17;;;;;;;3.15;100.00;98907.09;5003621;28;20377;-69
2020/12/07 03:13:25;;;;;;;109.33;20.70;;;;;;;3.14;100.00;98887.31;5005336;28;20100;-67
2020/12/07 03:15:50;;;;;;;96.03;20.37;;;;;;;3.13;100.00;98886.44;5003899;28;20128;-67
2020/12/07 03:18:16;;;;;;;104.07;18.07;;;;;;;3.14;100.00;98882.16;5005176;28;20504;-67
2020/12/07 03:20:41;;;;;;;98.80;19.70;;;;;;;3.14;100.00;98876.97;5004622;28;20476;-66
2020/12/07 03:23:07;;;;;;;88.33;18.57;;;;;;;3.12;100.00;98873.53;5004096;28;20030;-65
2020/12/07 03:25:32;;;;;;;107.67;20.80;;;;;;;3.16;100.00;98872.72;5004063;28;20080;-67
2020/12/07 03:27:58;;;;;;;93.20;20.10;;;;;;;3.15;100.00;98864.09;5006152;28;20072;-67
2020/12/07 03:30:23;;;;;;;93.93;19.70;;;;;;;3.17;100.00;98871.84;5004590;28;20029;-66
2020/12/07 03:32:48;;;;;;;89.63;18.50;;;;;;;3.16;100.00;98875.28;5009925;28;20105;-68
2020/12/07 03:35:14;;;;;;;97.70;20.17;;;;;;;3.14;100.00;98893.34;5003048;28;20421;-69
2020/12/07 03:37:39;;;;;;;87.10;18.43;;;;;;;3.17;100.00;98892.50;5004367;28;20513;-66
2020/12/07 03:40:05;;;;;;;88.50;18.70;;;;;;;3.16;100.00;98875.28;5003398;28;20030;-70
2020/12/07 03:42:30;;;;;;;99.90;20.27;;;;;;;3.15;100.00;98874.44;5004226;28;20026;-68
2020/12/07 03:44:56;;;;;;;82.67;18.80;;;;;;;3.16;100.00;98875.28;5004011;28;20254;-66
2020/12/07 03:47:21;;;;;;;87.27;19.53;;;;;;;3.14;100.00;98871.81;5007385;28;20038;-66
2020/12/07 03:49:48;;;;;;;94.40;19.23;;;;;;;3.13;100.00;98864.94;5003204;28;20041;-70
2020/12/07 03:52:14;;;;;;;97.63;19.27;;;;;;;3.14;100.00;98877.84;5004160;28;20021;-68
2020/12/07 03:54:39;;;;;;;88.47;19.57;;;;;;;3.14;100.00;98861.50;5003621;28;20647;-70
2020/12/07 03:57:05;;;;;;;88.00;19.30;;;;;;;3.15;100.00;98864.09;5005952;28;20280;-67
2020/12/07 03:59:30;;;;;;;95.47;19.90;;;;;;;3.17;100.00;98872.72;5005424;28;20148;-69
2020/12/07 04:01:55;;;;;;;89.87;18.10;;;;;;;3.17;100.00;98877.00;5002883;28;20033;-68
2020/12/07 04:04:26;;;;;;;94.77;19.00;;;;;;;3.16;100.00;98875.28;5003206;28;20076;-67
2020/12/07 04:06:51;;;;;;;105.50;21.13;;;;;;;3.18;100.00;98863.25;5002139;28;20493;-67
2020/12/07 04:09:17;;;;;;;103.60;18.60;;;;;;;3.19;100.00;98859.78;5004457;28;20315;-68
2020/12/07 04:11:42;;;;;;;94.17;18.63;;;;;;;3.17;100.00;98851.19;5002106;28;20029;-70
2020/12/07 04:14:08;;;;;;;112.77;19.97;;;;;;;3.17;100.00;98864.09;5007398;28;21253;-68
2020/12/07 04:16:33;;;;;;;87.13;19.00;;;;;;;3.18;100.00;98870.97;5003793;28;20030;-66
2020/12/07 04:18:59;;;;;;;92.30;19.33;;;;;;;3.18;100.00;98878.72;5004041;28;21123;-68
2020/12/07 04:21:24;;;;;;;80.80;19.50;;;;;;;3.19;100.00;98880.44;5001869;28;20044;-67
2020/12/07 04:23:50;;;;;;;103.03;18.20;;;;;;;3.18;100.00;98882.19;5004225;28;20124;-68
2020/12/07 04:26:15;;;;;;;94.63;18.27;;;;;;;3.19;100.00;98881.31;5003441;28;20083;-68
2020/12/07 04:28:41;;;;;;;113.40;18.30;;;;;;;3.23;100.00;98871.84;5005653;28;20484;-68
2020/12/07 04:31:06;;;;;;;94.70;19.63;;;;;;;3.21;100.00;98874.41;5002789;28;20027;-68
2020/12/07 04:33:32;;;;;;;93.63;18.37;;;;;;;3.22;100.00;98875.28;5005506;28;20041;-68
2020/12/07 04:35:57;;;;;;;94.83;17.40;;;;;;;3.24;100.00;98881.31;5003123;28;20140;-66
2020/12/07 04:38:23;;;;;;;102.23;19.60;;;;;;;3.24;100.00;98882.16;5003618;28;20123;-71
2020/12/07 04:40:49;;;;;;;112.73;19.17;;;;;;;3.25;100.00;98875.28;5003556;28;20026;-68
2020/12/07 04:43:16;;;;;;;99.00;19.27;;;;;;;3.23;100.00;98877.00;5003143;28;20070;-67
2020/12/07 04:45:43;;;;;;;101.70;19.90;;;;;;;3.23;100.00;98874.41;5004464;28;20818;-68
2020/12/07 04:48:08;;;;;;;116.47;20.50;;;;;;;3.24;100.00;98883.88;5006717;28;20326;-67
2020/12/07 04:50:36;;;;;;;91.93;20.23;;;;;;;3.24;100.00;98889.06;5007167;28;20285;-65
2020/12/07 04:53:01;;;;;;;107.67;20.50;;;;;;;3.24;100.00;98879.59;5007403;28;20045;-67
2020/12/07 04:55:27;;;;;;;99.27;19.80;;;;;;;3.23;100.00;98882.16;5007365;28;20759;-65
2020/12/07 04:57:54;;;;;;;91.63;18.97;;;;;;;3.24;100.00;98883.88;5007669;28;20037;-66
2020/12/07 05:00:23;;;;;;;84.63;18.57;;;;;;;3.22;100.00;98876.16;5006391;28;20026;-67
2020/12/07 05:02:51;;;;;;;101.17;19.47;;;;;;;3.24;100.00;98868.38;5010281;28;20299;-70
2020/12/07 05:05:17;;;;;;;87.73;19.10;;;;;;;3.25;100.00;98862.38;5003867;28;20749;-67
2020/12/07 05:07:47;;;;;;;106.77;19.93;;;;;;;3.25;100.00;98862.38;5006974;28;21033;-69
2020/12/07 05:10:15;;;;;;;104.37;20.00;;;;;;;3.25;100.00;98857.19;5007584;28;20037;-68
2020/12/07 05:12:45;;;;;;;94.27;18.53;;;;;;;3.28;100.00;98854.66;5009997;28;20276;-69
2020/12/07 05:15:13;;;;;;;91.60;19.83;;;;;;;3.26;100.00;98856.34;5005697;28;20675;-69
2020/12/07 05:17:39;;;;;;;97.47;20.03;;;;;;;3.24;100.00;98847.72;5008176;28;20285;-69
2020/12/07 05:20:06;;;;;;;95.10;18.43;;;;;;;3.27;100.00;98852.03;5007485;28;20304;-68
2020/12/07 05:22:31;;;;;;;100.27;19.93;;;;;;;3.27;100.00;98862.34;5007416;28;20281;-69
2020/12/07 05:24:57;;;;;;;91.17;19.83;;;;;;;3.25;100.00;98859.78;5007625;28;20374;-70
2020/12/07 05:27:27;;;;;;;101.07;19.97;;;;;;;3.27;100.00;98842.59;5006401;28;20034;-68
2020/12/07 05:32:30;;;;;;;94.23;19.87;;;;;;;3.26;100.00;98820.19;5002906;28;20379;-67
2020/12/07 05:34:58;;;;;;;84.40;19.23;;;;;;;3.27;100.00;98829.69;5006757;28;20684;-69
2020/12/07 05:37:23;;;;;;;93.20;18.97;;;;;;;3.30;100.00;98839.16;5008007;28;20092;-67
2020/12/07 05:39:49;;;;;;;82.10;18.43;;;;;;;3.31;100.00;98839.13;5006647;28;20323;-70
2020/12/07 05:42:17;;;;;;;91.10;20.10;;;;;;;3.31;100.00;98839.13;5006195;28;20060;-71
2020/12/07 05:44:48;;;;;;;85.63;18.43;;;;;;;3.31;100.00;98838.28;5007224;28;20018;-68
2020/12/07 05:47:21;;;;;;;83.93;17.37;;;;;;;3.30;100.00;98829.66;5006755;28;20284;-68
2020/12/07 05:49:49;;;;;;;82.23;18.53;;;;;;;3.29;100.00;98822.78;5004053;28;20315;-70
2020/12/07 05:52:21;;;;;;;83.90;17.93;;;;;;;3.28;100.00;98828.81;5007709;28;20406;-68
2020/12/07 05:54:47;;;;;;;85.93;17.20;;;;;;;3.28;100.00;98826.22;5007209;28;20284;-69
2020/12/07 05:57:17;;;;;;;79.97;17.47;;;;;;;3.28;100.00;98828.81;5002195;28;22301;-69
2020/12/07 05:59:46;;;;;;;82.83;17.40;;;;;;;3.30;100.00;98836.56;5004387;28;20279;-66
2020/12/07 06:02:15;;;;;;;82.73;17.47;;;;;;;3.29;100.00;98829.69;5006246;28;20307;-67
2020/12/07 06:04:40;;;;;;;81.63;17.70;;;;;;;3.30;100.00;98821.94;5005784;28;20322;-66
2020/12/07 06:07:09;;;;;;;81.80;16.90;;;;;;;3.26;100.00;98819.31;5003518;28;20281;-66
2020/12/07 06:09:39;;;;;;;72.77;17.07;;;;;;;3.27;100.00;98827.09;5006007;28;20213;-70
2020/12/07 06:12:13;;;;;;;78.07;16.20;;;;;;;3.27;100.00;98824.50;5011279;28;20272;-67
2020/12/07 06:14:39;;;;;;;81.17;17.00;;;;;;;3.29;100.00;98834.84;5007050;28;20272;-69
2020/12/07 06:17:04;;;;;;;61.80;15.70;;;;;;;3.28;100.00;98827.97;5007189;28;20645;-67
2020/12/07 06:19:33;;;;;;;79.93;16.70;;;;;;;3.30;100.00;98837.41;5002443;28;20026;-68
2020/12/07 06:22:02;;;;;;;78.23;15.97;;;;;;;3.28;100.00;98839.16;5001641;28;20087;-68
2020/12/07 06:24:38;;;;;;;72.40;16.27;;;;;;;3.27;100.00;98827.09;5002061;28;20289;-67
2020/12/07 06:27:08;;;;;;;64.23;16.20;;;;;;;3.30;100.00;98837.41;5005593;28;20442;-68
2020/12/07 06:29:34;;;;;;;54.53;13.17;;;;;;;3.28;100.00;98822.78;5003119;28;20317;-69
2020/12/07 06:32:00;;;;;;;43.53;12.23;;;;;;;3.29;100.00;98825.38;5003856;28;20368;-68
2020/12/07 06:34:33;;;;;;;51.30;12.17;;;;;;;3.25;100.00;98826.22;5005165;28;20755;-68
2020/12/07 06:36:59;;;;;;;50.27;12.40;;;;;;;3.24;100.00;98816.75;5004230;28;20049;-67
2020/12/07 06:39:25;;;;;;;46.93;12.00;;;;;;;3.25;100.00;98815.88;5005359;28;20279;-69
2020/12/07 06:41:50;;;;;;;35.53;10.37;;;;;;;3.27;100.00;98827.09;5004784;28;20288;-69
2020/12/07 06:44:22;;;;;;;41.03;12.90;;;;;;;3.27;100.00;98832.25;5004625;28;20112;-68
2020/12/07 06:47:10;;;;;;;50.15;12.13;;;;;;;3.24;100.00;98847.72;5003781;28;20034;-67
2020/12/07 06:52:15;;;;;;;35.30;10.27;;;;;;;3.24;100.00;98850.31;5002630;28;20281;-68
2020/12/07 06:57:47;;;;;;;27.27;7.97;;;;;;;3.20;100.00;98841.72;5019373;28;20264;-69
2020/12/07 07:00:22;;;;;;;23.20;7.10;;;;;;;3.16;100.00;98839.13;5017503;28;20948;-66
2020/12/07 07:02:52;;;;;;;22.67;6.73;;;;;;;3.14;100.00;98840.84;5009117;28;20042;-68
2020/12/07 07:05:20;;;;;;;20.80;6.33;;;;;;;3.14;100.00;98848.56;5014899;28;20699;-69
2020/12/07 07:07:46;;;;;;;16.60;5.70;;;;;;;3.15;100.00;98847.72;5013467;28;20350;-67
2020/12/07 07:10:13;;;;;;;20.53;7.00;;;;;;;3.12;100.00;98842.56;5019966;28;20707;-67
2020/12/07 07:12:40;;;;;;;22.13;7.10;;;;;;;3.11;100.00;98849.44;5013667;28;20371;-67
2020/12/07 07:15:08;;;;;;;19.50;6.93;;;;;;;3.08;100.00;98854.63;5021889;28;20283;-66
2020/12/07 07:17:35;;;;;;;19.90;7.03;;;;;;;3.04;100.00;98859.78;5013201;28;20276;-65
2020/12/07 07:20:04;;;;;;;19.50;6.43;;;;;;;3.00;100.00;98868.34;5005649;28;20648;-69
2020/12/07 07:22:29;;;;;;;13.93;5.27;;;;;;;2.93;100.00;98868.34;4999218;28;20323;-66
2020/12/07 07:25:19;;;;;;;13.53;4.87;;;;;;;2.88;100.00;98864.88;5016754;28;20790;-69
2020/12/07 07:30:21;;;;;;;9.33;4.07;;;;;;;2.75;100.00;98852.81;5013832;28;20581;-69
2020/12/07 07:32:48;;;;;;;10.53;4.47;;;;;;;2.71;100.00;98855.38;5005114;28;20292;-71
2020/12/07 07:35:16;;;;;;;10.57;3.67;;;;;;;2.67;100.00;98858.81;5007376;28;20639;-66
2020/12/07 07:37:42;;;;;;;7.50;3.30;;;;;;;2.63;100.00;98863.97;5013371;28;20268;-68
2020/12/07 07:40:13;;;;;;;9.70;3.80;;;;;;;2.57;100.00;98863.09;5009046;28;20308;-66
2020/12/07 07:42:43;;;;;;;11.50;4.37;;;;;;;2.51;100.00;98865.63;5007781;28;20527;-68
2020/12/07 07:45:10;;;;;;;10.33;3.57;;;;;;;2.51;100.00;98863.06;5026672;28;20840;-67
2020/12/07 07:47:45;;;;;;;8.83;3.80;;;;;;;2.48;100.00;98857.88;5008152;28;20281;-69
2020/12/07 07:50:40;;;;;;;9.70;4.07;;;;;;;2.43;100.00;98849.28;5023763;28;20287;-66
2020/12/07 08:02:22;;;;;;;10.97;4.33;;;;;;;2.43;100.00;98864.75;5017917;28;20276;-68
2020/12/07 08:18:00;;;;;;;10.20;3.83;;;;;;;2.54;100.00;98883.69;5009335;28;20303;-67
2020/12/07 08:20:37;;;;;;;8.80;3.80;;;;;;;2.52;100.00;98877.66;5009015;28;20284;-68
2020/12/07 08:23:05;;;;;;;9.20;4.20;;;;;;;2.57;100.00;98884.59;5001851;28;20492;-67
2020/12/07 08:25:50;;;;;;;10.30;4.00;;;;;;;2.58;100.00;98888.03;5009048;28;20277;-68
2020/12/07 08:28:21;;;;;;;10.57;4.10;;;;;;;2.59;100.00;98887.16;5005419;28;20280;-70
2020/12/07 08:31:04;;;;;;;9.27;3.80;;;;;;;2.64;100.00;98898.34;5004257;28;20342;-69
2020/12/07 08:33:31;;;;;;;10.13;3.80;;;;;;;2.65;100.00;98900.06;5003599;28;20936;-66
2020/12/07 08:35:58;;;;;;;9.77;4.40;;;;;;;2.67;100.00;98916.44;5022023;28;20069;-70
2020/12/07 08:38:28;;;;;;;9.60;4.43;;;;;;;2.68;100.00;98907.84;5009765;28;20283;-71
2020/12/07 08:41:02;;;;;;;11.00;4.63;;;;;;;2.71;100.00;98902.69;5011927;28;20312;-70
2020/12/07 08:43:27;;;;;;;10.00;4.57;;;;;;;2.71;100.00;98886.34;5011736;28;20292;-69
2020/12/07 08:45:52;;;;;;;9.83;4.80;;;;;;;2.76;100.00;98905.28;5015570;28;20280;-68
2020/12/07 08:48:18;;;;;;;9.80;4.00;;;;;;;2.80;100.00;98920.81;5012699;28;20286;-69
2020/12/07 08:50:43;;;;;;;12.27;4.17;;;;;;;2.78;100.00;98922.50;5012055;28;20037;-66
2020/12/07 08:53:08;;;;;;;9.63;4.33;;;;;;;2.81;100.00;98917.38;5018173;28;20025;-71
2020/12/07 08:55:34;;;;;;;11.50;4.33;;;;;;;2.80;100.00;98910.47;5017764;28;20059;-68
2020/12/07 08:57:59;;;;;;;14.07;4.73;;;;;;;2.76;100.00;98903.56;5011867;28;20104;-68
2020/12/07 09:00:25;;;;;;;8.93;4.53;;;;;;;2.81;100.00;98913.91;5013780;28;20033;-70
2020/12/07 09:02:50;;;;;;;10.03;4.90;;;;;;;2.77;100.00;98900.13;5014610;28;20113;-70
2020/12/07 09:05:15;;;;;;;10.80;4.63;;;;;;;2.79;100.00;98921.66;5003833;28;20484;-69
2020/12/07 09:07:41;;;;;;;14.07;5.17;;;;;;;2.82;100.00;98932.00;5018623;28;20042;-71
2020/12/07 09:10:06;;;;;;;11.57;4.77;;;;;;;2.84;100.00;98950.91;5010159;28;20029;-69
2020/12/07 09:12:31;;;;;;;12.23;5.57;;;;;;;2.86;100.00;98954.34;5013027;28;20029;-68
2020/12/07 09:14:57;;;;;;;11.67;5.13;;;;;;;2.89;100.00;98953.50;5015179;28;20144;-71
2020/12/07 09:17:22;;;;;;;13.07;5.97;;;;;;;2.93;100.00;98956.13;5014393;28;20511;-68
2020/12/07 09:19:47;;;;;;;13.87;5.50;;;;;;;2.96;100.00;98950.09;4998475;28;20061;-67
2020/12/07 09:22:13;;;;;;;12.93;5.83;;;;;;;2.96;100.00;98950.09;5012711;28;20026;-69
2020/12/07 09:24:39;;;;;;;12.70;5.93;;;;;;;3.00;100.00;98953.53;5004985;28;20118;-71
2020/12/07 09:27:04;;;;;;;11.87;5.47;;;;;;;3.04;100.00;98963.03;5014175;28;20481;-73
2020/12/07 09:29:29;;;;;;;12.47;5.73;;;;;;;3.03;100.00;98958.72;5015920;28;20119;-68
2020/12/07 09:31:55;;;;;;;13.50;5.50;;;;;;;3.02;100.00;98965.59;5014212;28;20030;-70
2020/12/07 09:34:20;;;;;;;13.03;5.47;;;;;;;2.98;100.00;98970.75;5007940;28;20064;-73
2020/12/07 09:36:46;;;;;;;14.33;6.87;;;;;;;2.94;100.00;98963.00;5014935;28;20244;-70
2020/12/07 09:39:11;;;;;;;14.70;6.13;;;;;;;2.97;100.00;98961.28;5016797;28;20507;-71
2020/12/07 09:41:37;;;;;;;18.27;6.73;;;;;;;2.96;100.00;98947.53;5015242;28;20048;-70
2020/12/07 09:44:02;;;;;;;16.03;6.50;;;;;;;2.99;100.00;98944.06;5015550;28;20064;-69
2020/12/07 09:46:27;;;;;;;17.23;6.77;;;;;;;3.00;100.00;98949.25;5017313;28;20496;-70
2020/12/07 09:48:53;;;;;;;17.30;7.37;;;;;;;3.01;100.00;98947.53;5019042;28;20108;-67
2020/12/07 09:51:18;;;;;;;20.90;6.73;;;;;;;3.06;100.00;98956.16;5011382;28;20033;-70
2020/12/07 09:53:44;;;;;;;17.37;6.60;;;;;;;3.03;100.00;98966.47;5021818;28;20112;-68
2020/12/07 09:56:09;;;;;;;16.87;6.67;;;;;;;3.07;100.00;98952.72;5013047;28;20130;-70
2020/12/07 09:58:35;;;;;;;17.87;7.43;;;;;;;3.10;100.00;98957.88;5016319;28;20048;-68
2020/12/07 10:01:00;;;;;;;16.90;7.47;;;;;;;3.10;100.00;98958.75;5011208;28;20037;-72
2020/12/07 10:03:26;;;;;;;19.53;7.37;;;;;;;3.16;100.00;98960.50;5007418;28;20624;-67
2020/12/07 10:05:51;;;;;;;18.40;7.60;;;;;;;3.19;100.00;98942.44;5039527;28;20030;-68
2020/12/07 10:08:17;;;;;;;18.67;7.60;;;;;;;3.22;100.00;98947.59;5012961;28;20131;-68
2020/12/07 10:10:43;;;;;;;19.70;7.57;;;;;;;3.22;100.00;98969.13;5014569;28;20053;-68
2020/12/07 10:13:08;;;;;;;17.67;7.00;;;;;;;3.23;100.00;98959.66;5022233;28;20196;-67
2020/12/07 10:15:34;;;;;;;20.07;7.57;;;;;;;3.27;100.00;98960.50;5006544;28;20044;-67
2020/12/07 10:17:59;;;;;;;20.37;7.50;;;;;;;3.29;100.00;98959.69;5007322;28;20033;-66
2020/12/07 10:20:25;;;;;;;21.47;8.60;;;;;;;3.33;100.00;98953.66;5010987;28;20108;-68
2020/12/07 10:22:50;;;;;;;17.07;6.73;;;;;;;3.37;100.00;98952.78;5017584;28;20095;-73
2020/12/07 10:25:16;;;;;;;19.47;7.80;;;;;;;3.41;100.00;98949.38;5006875;28;20645;-67
2020/12/07 10:27:41;;;;;;;23.20;7.90;;;;;;;3.46;100.00;98952.81;5014317;28;20030;-69
2020/12/07 10:30:07;;;;;;;21.83;8.10;;;;;;;3.50;100.00;98954.53;5010980;28;20500;-73
2020/12/07 10:32:32;;;;;;;22.10;7.73;;;;;;;3.55;100.00;98951.09;5012488;28;20041;-68
2020/12/07 10:34:57;;;;;;;22.47;8.47;;;;;;;3.59;100.00;98958.00;5013066;28;20108;-69
2020/12/07 10:37:23;;;;;;;19.67;7.63;;;;;;;3.59;100.00;98952.81;5013825;28;20112;-66
2020/12/07 10:39:49;;;;;;;22.03;8.20;;;;;;;3.65;100.00;98960.59;5006485;28;20038;-69
2020/12/07 10:42:14;;;;;;;25.20;8.70;;;;;;;3.67;100.00;98951.97;5005881;28;20391;-68
2020/12/07 10:44:39;;;;;;;21.50;8.07;;;;;;;3.72;100.00;98951.97;5005701;28;20072;-71
2020/12/07 10:47:05;;;;;;;18.30;6.73;;;;;;;3.72;100.00;98957.13;5013719;28;20469;-68
2020/12/07 10:49:30;;;;;;;22.20;7.50;;;;;;;3.77;100.00;98965.78;5006546;28;20048;-70
2020/12/07 10:51:55;;;;;;;22.43;8.40;;;;;;;3.83;100.00;98969.22;5012316;28;20036;-69
2020/12/07 10:54:21;;;;;;;19.80;7.50;;;;;;;3.91;100.00;98950.25;5041473;28;20120;-68
2020/12/07 10:56:46;;;;;;;19.07;7.13;;;;;;;3.93;100.00;98964.91;5016415;28;20052;-68
2020/12/07 10:59:12;;;;;;;15.13;5.57;;;;;;;3.99;100.00;98967.47;5011162;28;20037;-69
2020/12/07 11:01:38;;;;;;;23.07;7.77;;;;;;;4.01;100.00;98973.53;5017046;28;20041;-68
2020/12/07 11:04:03;;;;;;;24.37;8.37;;;;;;;4.04;100.00;98963.19;5019154;28;20042;-69
2020/12/07 11:06:32;;;;;;;23.23;8.30;;;;;;;4.05;100.00;98970.06;5013668;28;20104;-67
2020/12/07 11:08:58;;;;;;;26.63;8.67;;;;;;;4.13;100.00;98979.56;5016583;28;20035;-68
2020/12/07 11:11:24;;;;;;;28.77;9.60;;;;;;;4.10;100.00;98976.09;5015772;28;20369;-67
2020/12/07 11:13:50;;;;;;;27.67;9.73;;;;;;;4.18;100.00;98985.59;5011187;28;20272;-68
2020/12/07 11:16:19;;;;;;;26.93;9.13;;;;;;;4.20;100.00;98983.84;5018429;28;20033;-67
2020/12/07 11:18:44;;;;;;;22.83;9.13;;;;;;;4.20;100.00;98991.63;5018504;28;20477;-72
2020/12/07 11:21:15;;;;;;;27.30;10.00;;;;;;;4.22;100.00;98988.16;5002180;28;20368;-70
2020/12/07 11:23:46;;;;;;;31.23;10.23;;;;;;;4.23;100.00;98994.19;5004445;28;20174;-70
2020/12/07 11:26:13;;;;;;;28.20;9.43;;;;;;;4.26;100.00;98996.78;5000448;28;20300;-69
2020/12/07 11:28:39;;;;;;;32.07;10.93;;;;;;;4.28;100.00;98997.66;5001130;28;20571;-71
2020/12/07 11:31:09;;;;;;;27.20;9.60;;;;;;;4.31;100.00;99003.69;4999327;28;20287;-71
2020/12/07 11:33:34;;;;;;;33.30;9.70;;;;;;;4.28;100.00;98998.50;5013529;28;20486;-70
2020/12/07 11:36:01;;;;;;;32.53;12.80;;;;;;;4.33;100.00;98993.31;5000397;28;20280;-68
2020/12/07 11:38:30;;;;;;;29.07;9.53;;;;;;;4.35;100.00;98991.59;5001975;28;20149;-72
2020/12/07 11:41:11;;;;;;;33.70;11.60;;;;;;;4.37;100.00;98989.88;5003320;28;20342;-70
2020/12/07 11:46:08;;;;;;;31.13;11.33;;;;;;;4.44;100.00;98999.34;5003357;28;20289;-67
2020/12/07 11:48:34;;;;;;;37.17;10.83;;;;;;;4.46;100.00;99007.97;5000706;28;20375;-69
2020/12/07 11:50:59;;;;;;;33.97;11.13;;;;;;;4.44;100.00;99004.53;5000771;28;20038;-70
2020/12/07 11:53:25;;;;;;;31.87;10.20;;;;;;;4.47;100.00;99004.50;5003069;28;20029;-68